sensor_id;sensor_type;location;lat;lon;timestamp;pressure;altitude;pressure_sealevel;temperature;humidity
28008;BME280;15333;50.010;20.020;2024-02-04T00:01:00;98735.66;;;7.82;72.51
28008;BME280;15333;50.010;20.020;2024-02-04T00:04:21;98738.00;;;7.74;71.44
28008;BME280;15333;50.010;20.020;2024-02-04T00:07:23;98735.84;;;7.66;71.12
28008;BME280;15333;50.010;20.020;2024-02-04T00:10:25;98746.84;;;7.60;70.58
28008;BME280;15333;50.010;20.020;2024-02-04T00:13:27;98731.50;;;7.51;69.09
28008;BME280;15333;50.010;20.020;2024-02-04T00:16:28;98728.53;;;7.56;69.23
28008;BME280;15333;50.010;20.020;2024-02-04T00:19:29;98723.28;;;7.54;69.60
28008;BME280;15333;50.010;20.020;2024-02-04T00:22:31;98729.00;;;7.48;69.81
28008;BME280;15333;50.010;20.020;2024-02-04T00:25:34;98724.53;;;7.48;69.41
28008;BME280;15333;50.010;20.020;2024-02-04T00:28:35;98709.06;;;7.41;69.79
28008;BME280;15333;50.010;20.020;2024-02-04T00:31:36;98708.03;;;7.43;69.56
28008;BME280;15333;50.010;20.020;2024-02-04T00:34:37;98703.25;;;7.48;69.75
28008;BME280;15333;50.010;20.020;2024-02-04T00:37:37;98702.75;;;7.56;70.37
28008;BME280;15333;50.010;20.020;2024-02-04T00:40:38;98692.28;;;7.53;71.16
28008;BME280;15333;50.010;20.020;2024-02-04T00:43:39;98686.13;;;7.53;71.36
28008;BME280;15333;50.010;20.020;2024-02-04T00:46:41;98688.84;;;7.65;72.53
28008;BME280;15333;50.010;20.020;2024-02-04T00:49:41;98708.81;;;7.72;72.54
28008;BME280;15333;50.010;20.020;2024-02-04T00:52:42;98699.72;;;7.75;73.52
28008;BME280;15333;50.010;20.020;2024-02-04T00:55:43;98702.41;;;7.75;72.88
28008;BME280;15333;50.010;20.020;2024-02-04T00:58:44;98715.38;;;7.67;72.34
28008;BME280;15333;50.010;20.020;2024-02-04T01:01:45;98714.91;;;7.60;71.92
28008;BME280;15333;50.010;20.020;2024-02-04T01:04:46;98705.09;;;7.61;71.68
28008;BME280;15333;50.010;20.020;2024-02-04T01:07:47;98710.44;;;7.61;71.16
28008;BME280;15333;50.010;20.020;2024-02-04T01:10:48;98709.13;;;7.54;71.11
28008;BME280;15333;50.010;20.020;2024-02-04T01:13:51;98708.28;;;7.39;69.03
28008;BME280;15333;50.010;20.020;2024-02-04T01:16:52;98695.31;;;7.20;67.32
28008;BME280;15333;50.010;20.020;2024-02-04T01:19:53;98706.75;;;7.08;67.60
28008;BME280;15333;50.010;20.020;2024-02-04T01:22:54;98712.44;;;7.02;67.22
28008;BME280;15333;50.010;20.020;2024-02-04T01:25:54;98701.97;;;6.99;67.26
28008;BME280;15333;50.010;20.020;2024-02-04T01:28:55;98698.56;;;6.97;67.50
28008;BME280;15333;50.010;20.020;2024-02-04T01:31:56;98693.16;;;6.98;67.36
28008;BME280;15333;50.010;20.020;2024-02-04T01:34:57;98706.66;;;6.95;67.75
28008;BME280;15333;50.010;20.020;2024-02-04T01:37:58;98698.75;;;6.94;67.37
28008;BME280;15333;50.010;20.020;2024-02-04T01:40:59;98695.16;;;6.95;67.15
28008;BME280;15333;50.010;20.020;2024-02-04T01:43:59;98695.16;;;6.95;66.79
28008;BME280;15333;50.010;20.020;2024-02-04T01:47:01;98694.31;;;6.94;67.42
28008;BME280;15333;50.010;20.020;2024-02-04T01:50:03;98696.50;;;6.88;66.76
28008;BME280;15333;50.010;20.020;2024-02-04T01:53:04;98700.28;;;6.84;66.82
28008;BME280;15333;50.010;20.020;2024-02-04T01:56:05;98692.59;;;6.79;66.59
28008;BME280;15333;50.010;20.020;2024-02-04T01:59:06;98680.72;;;6.71;64.69
28008;BME280;15333;50.010;20.020;2024-02-04T02:02:07;98684.53;;;6.66;63.79
28008;BME280;15333;50.010;20.020;2024-02-04T02:05:08;98673.88;;;6.66;63.41
28008;BME280;15333;50.010;20.020;2024-02-04T02:08:09;98677.66;;;6.62;63.33
28008;BME280;15333;50.010;20.020;2024-02-04T02:11:20;98669.97;;;6.58;62.83
28008;BME280;15333;50.010;20.020;2024-02-04T02:14:26;98665.69;;;6.55;62.82
28008;BME280;15333;50.010;20.020;2024-02-04T02:17:36;98669.50;;;6.51;62.65
28008;BME280;15333;50.010;20.020;2024-02-04T02:24:33;98662.28;;;6.53;60.57
28008;BME280;15333;50.010;20.020;2024-02-04T02:27:33;98667.63;;;6.53;60.44
28008;BME280;15333;50.010;20.020;2024-02-04T02:30:35;98663.03;;;6.55;60.03
28008;BME280;15333;50.010;20.020;2024-02-04T02:33:35;98661.22;;;6.56;60.08
28008;BME280;15333;50.010;20.020;2024-02-04T02:36:54;98668.34;;;6.55;60.31
28008;BME280;15333;50.010;20.020;2024-02-04T02:40:07;98661.91;;;6.59;59.88
28008;BME280;15333;50.010;20.020;2024-02-04T02:43:11;98665.50;;;6.58;59.59
28008;BME280;15333;50.010;20.020;2024-02-04T02:46:13;98669.28;;;6.54;59.51
28008;BME280;15333;50.010;20.020;2024-02-04T02:49:14;98668.09;;;6.60;59.59
28008;BME280;15333;50.010;20.020;2024-02-04T02:52:15;98668.75;;;6.63;59.32
28008;BME280;15333;50.010;20.020;2024-02-04T02:55:16;98657.25;;;6.63;59.65
28008;BME280;15333;50.010;20.020;2024-02-04T02:58:17;98675.38;;;6.71;59.95
28008;BME280;15333;50.010;20.020;2024-02-04T03:01:18;98679.59;;;6.75;59.95
28008;BME280;15333;50.010;20.020;2024-02-04T03:04:19;98681.09;;;6.79;59.93
28008;BME280;15333;50.010;20.020;2024-02-04T03:07:20;98701.44;;;6.80;60.48
28008;BME280;15333;50.010;20.020;2024-02-04T03:10:20;98708.63;;;6.78;60.58
28008;BME280;15333;50.010;20.020;2024-02-04T03:13:21;98721.94;;;6.78;60.94
28008;BME280;15333;50.010;20.020;2024-02-04T03:16:22;98723.81;;;6.76;62.48
28008;BME280;15333;50.010;20.020;2024-02-04T03:19:23;98728.56;;;6.71;63.20
28008;BME280;15333;50.010;20.020;2024-02-04T03:22:24;98724.28;;;6.68;64.35
28008;BME280;15333;50.010;20.020;2024-02-04T03:25:25;98732.00;;;6.73;66.82
28008;BME280;15333;50.010;20.020;2024-02-04T03:28:27;98721.38;;;6.73;69.01
28008;BME280;15333;50.010;20.020;2024-02-04T03:31:28;98720.88;;;6.66;69.67
28008;BME280;15333;50.010;20.020;2024-02-04T03:34:29;98698.56;;;6.68;71.00
28008;BME280;15333;50.010;20.020;2024-02-04T03:37:30;98698.06;;;6.62;71.02
28008;BME280;15333;50.010;20.020;2024-02-04T03:40:31;98684.59;;;6.51;71.10
28008;BME280;15333;50.010;20.020;2024-02-04T03:43:32;98678.03;;;6.56;71.75
28008;BME280;15333;50.010;20.020;2024-02-04T03:46:32;98689.06;;;6.50;71.70
28008;BME280;15333;50.010;20.020;2024-02-04T03:49:34;98689.06;;;6.50;71.62
28008;BME280;15333;50.010;20.020;2024-02-04T03:52:34;98692.88;;;6.46;71.67
28008;BME280;15333;50.010;20.020;2024-02-04T03:55:35;98686.69;;;6.46;71.25
28008;BME280;15333;50.010;20.020;2024-02-04T03:58:36;98698.19;;;6.46;71.44
28008;BME280;15333;50.010;20.020;2024-02-04T04:01:37;98697.66;;;6.40;71.57
28008;BME280;15333;50.010;20.020;2024-02-04T04:04:41;98700.91;;;6.45;71.72
28008;BME280;15333;50.010;20.020;2024-02-04T04:07:42;98694.75;;;6.44;72.14
28008;BME280;15333;50.010;20.020;2024-02-04T04:10:43;98693.97;;;6.42;72.12
28008;BME280;15333;50.010;20.020;2024-02-04T04:13:44;98696.63;;;6.42;73.03
28008;BME280;15333;50.010;20.020;2024-02-04T04:16:45;98698.53;;;6.40;72.51
28008;BME280;15333;50.010;20.020;2024-02-04T04:19:46;98702.16;;;6.39;72.72
28008;BME280;15333;50.010;20.020;2024-02-04T04:22:46;98698.03;;;6.34;71.96
28008;BME280;15333;50.010;20.020;2024-02-04T04:25:48;98693.09;;;6.27;71.61
28008;BME280;15333;50.010;20.020;2024-02-04T04:28:48;98702.78;;;6.28;71.84
28008;BME280;15333;50.010;20.020;2024-02-04T04:31:49;98698.31;;;6.29;72.22
28008;BME280;15333;50.010;20.020;2024-02-04T04:34:50;98692.59;;;6.21;72.01
28008;BME280;15333;50.010;20.020;2024-02-04T04:37:51;98694.50;;;6.19;71.29
28008;BME280;15333;50.010;20.020;2024-02-04T04:40:53;98683.00;;;6.18;71.11
28008;BME280;15333;50.010;20.020;2024-02-04T04:43:54;98697.91;;;6.21;70.61
28008;BME280;15333;50.010;20.020;2024-02-04T04:46:54;98703.22;;;6.21;70.59
28008;BME280;15333;50.010;20.020;2024-02-04T04:49:55;98689.16;;;6.19;70.14
28008;BME280;15333;50.010;20.020;2024-02-04T04:52:56;98685.56;;;6.20;70.00
28008;BME280;15333;50.010;20.020;2024-02-04T04:55:57;98678.75;;;6.16;69.83
28008;BME280;15333;50.010;20.020;2024-02-04T04:58:58;98694.84;;;6.13;69.56
28008;BME280;15333;50.010;20.020;2024-02-04T05:01:59;98686.31;;;6.08;69.21
28008;BME280;15333;50.010;20.020;2024-02-04T05:05:00;98685.53;;;6.06;68.96
28008;BME280;15333;50.010;20.020;2024-02-04T05:08:01;98683.47;;;6.11;68.98
28008;BME280;15333;50.010;20.020;2024-02-04T05:11:02;98683.19;;;6.15;69.51
28008;BME280;15333;50.010;20.020;2024-02-04T05:14:03;98679.16;;;6.24;69.92
28008;BME280;15333;50.010;20.020;2024-02-04T05:17:04;98683.53;;;6.25;69.77
28008;BME280;15333;50.010;20.020;2024-02-04T05:20:06;98679.72;;;6.29;69.98
28008;BME280;15333;50.010;20.020;2024-02-04T05:23:08;98686.91;;;6.27;69.63
28008;BME280;15333;50.010;20.020;2024-02-04T05:26:09;98691.56;;;6.23;69.08
28008;BME280;15333;50.010;20.020;2024-02-04T05:29:10;98690.72;;;6.23;69.25
28008;BME280;15333;50.010;20.020;2024-02-04T05:32:10;98698.13;;;6.18;68.57
28008;BME280;15333;50.010;20.020;2024-02-04T05:35:11;98717.47;;;6.20;68.54
28008;BME280;15333;50.010;20.020;2024-02-04T05:38:12;98711.78;;;6.26;69.20
28008;BME280;15333;50.010;20.020;2024-02-04T05:41:13;98693.13;;;6.12;68.76
28008;BME280;15333;50.010;20.020;2024-02-04T05:44:14;98706.69;;;6.07;67.44
28008;BME280;15333;50.010;20.020;2024-02-04T05:47:15;98691.91;;;6.03;67.51
28008;BME280;15333;50.010;20.020;2024-02-04T05:50:16;98691.22;;;6.00;66.75
28008;BME280;15333;50.010;20.020;2024-02-04T05:53:16;98690.44;;;5.98;66.95
28008;BME280;15333;50.010;20.020;2024-02-04T05:56:17;98717.38;;;5.92;66.27
28008;BME280;15333;50.010;20.020;2024-02-04T05:59:18;98719.41;;;5.86;66.32
28008;BME280;15333;50.010;20.020;2024-02-04T06:02:19;98728.50;;;5.82;64.17
28008;BME280;15333;50.010;20.020;2024-02-04T06:05:20;98730.75;;;5.74;63.00
28008;BME280;15333;50.010;20.020;2024-02-04T06:08:21;98725.44;;;5.74;62.26
28008;BME280;15333;50.010;20.020;2024-02-04T06:11:21;98722.00;;;5.72;61.77
28008;BME280;15333;50.010;20.020;2024-02-04T06:14:22;98720.28;;;5.71;61.69
28008;BME280;15333;50.010;20.020;2024-02-04T06:17:23;98741.44;;;5.73;61.47
28008;BME280;15333;50.010;20.020;2024-02-04T06:20:24;98737.91;;;5.72;61.42
28008;BME280;15333;50.010;20.020;2024-02-04T06:23:25;98747.59;;;5.73;61.05
28008;BME280;15333;50.010;20.020;2024-02-04T06:26:25;98743.91;;;5.76;60.93
28008;BME280;15333;50.010;20.020;2024-02-04T06:29:26;98734.84;;;5.80;61.45
28008;BME280;15333;50.010;20.020;2024-02-04T06:32:27;98718.22;;;5.76;61.13
28008;BME280;15333;50.010;20.020;2024-02-04T06:35:28;98696.81;;;5.79;61.55
28008;BME280;15333;50.010;20.020;2024-02-04T06:38:29;98695.09;;;5.78;61.31
28008;BME280;15333;50.010;20.020;2024-02-04T06:41:29;98709.13;;;5.80;61.50
28008;BME280;15333;50.010;20.020;2024-02-04T06:44:30;98710.16;;;5.94;61.39
28008;BME280;15333;50.010;20.020;2024-02-04T06:47:31;98721.88;;;6.05;61.40
28008;BME280;15333;50.010;20.020;2024-02-04T06:50:32;98716.31;;;6.10;62.15
28008;BME280;15333;50.010;20.020;2024-02-04T06:53:33;98706.84;;;6.20;63.18
28008;BME280;15333;50.010;20.020;2024-02-04T06:56:34;98721.38;;;6.28;64.90
28008;BME280;15333;50.010;20.020;2024-02-04T06:59:35;98717.00;;;6.27;65.66
28008;BME280;15333;50.010;20.020;2024-02-04T07:02:36;98725.47;;;6.34;66.33
28008;BME280;15333;50.010;20.020;2024-02-04T07:05:37;98707.81;;;6.33;66.31
28008;BME280;15333;50.010;20.020;2024-02-04T07:08:38;98704.41;;;6.31;66.75
28008;BME280;15333;50.010;20.020;2024-02-04T07:11:39;98709.72;;;6.31;67.41
28008;BME280;15333;50.010;20.020;2024-02-04T07:14:40;98716.06;;;6.28;67.92
28008;BME280;15333;50.010;20.020;2024-02-04T07:17:40;98725.47;;;6.34;69.83
28008;BME280;15333;50.010;20.020;2024-02-04T07:20:41;98700.81;;;6.32;70.68
28008;BME280;15333;50.010;20.020;2024-02-04T07:23:42;98697.38;;;6.30;72.64
28008;BME280;15333;50.010;20.020;2024-02-04T07:26:43;98685.03;;;6.29;73.62
28008;BME280;15333;50.010;20.020;2024-02-04T07:29:44;98697.75;;;6.24;73.79
28008;BME280;15333;50.010;20.020;2024-02-04T07:32:45;98694.44;;;6.35;74.64
28008;BME280;15333;50.010;20.020;2024-02-04T07:35:46;98707.63;;;6.36;75.88
28008;BME280;15333;50.010;20.020;2024-02-04T07:38:47;98714.28;;;6.43;76.10
28008;BME280;15333;50.010;20.020;2024-02-04T07:41:48;98711.56;;;6.45;77.23
28008;BME280;15333;50.010;20.020;2024-02-04T07:44:49;98721.25;;;6.46;76.88
28008;BME280;15333;50.010;20.020;2024-02-04T07:47:49;98717.34;;;6.51;77.44
28008;BME280;15333;50.010;20.020;2024-02-04T07:50:50;98714.22;;;6.59;78.72
28008;BME280;15333;50.010;20.020;2024-02-04T07:53:51;98714.88;;;6.62;80.01
28008;BME280;15333;50.010;20.020;2024-02-04T07:56:52;98705.97;;;6.63;81.80
28008;BME280;15333;50.010;20.020;2024-02-04T07:59:53;98715.09;;;6.59;82.11
28008;BME280;15333;50.010;20.020;2024-02-04T08:02:55;98717.28;;;6.67;82.95
28008;BME280;15333;50.010;20.020;2024-02-04T08:05:55;98717.16;;;6.68;82.24
28008;BME280;15333;50.010;20.020;2024-02-04T08:08:57;98724.66;;;6.62;84.15
28008;BME280;15333;50.010;20.020;2024-02-04T08:11:57;98713.00;;;6.64;84.03
28008;BME280;15333;50.010;20.020;2024-02-04T08:14:58;98729.91;;;6.63;84.30
28008;BME280;15333;50.010;20.020;2024-02-04T08:17:59;98716.59;;;6.63;84.97
28008;BME280;15333;50.010;20.020;2024-02-04T08:21:00;98740.38;;;6.66;85.05
28008;BME280;15333;50.010;20.020;2024-02-04T08:24:01;98739.41;;;6.67;85.12
28008;BME280;15333;50.010;20.020;2024-02-04T08:27:02;98745.22;;;6.74;83.78
28008;BME280;15333;50.010;20.020;2024-02-04T08:30:05;98740.75;;;6.75;84.07
28008;BME280;15333;50.010;20.020;2024-02-04T08:33:06;98742.66;;;6.73;83.83
28008;BME280;15333;50.010;20.020;2024-02-04T08:36:07;98737.81;;;6.79;83.26
28008;BME280;15333;50.010;20.020;2024-02-04T08:39:11;98743.28;;;6.76;83.51
28008;BME280;15333;50.010;20.020;2024-02-04T08:42:11;98745.56;;;6.82;84.36
28008;BME280;15333;50.010;20.020;2024-02-04T08:45:12;98747.78;;;6.90;84.51
28008;BME280;15333;50.010;20.020;2024-02-04T08:48:13;98760.34;;;7.02;84.51
28008;BME280;15333;50.010;20.020;2024-02-04T08:51:14;98742.19;;;6.94;84.35
28008;BME280;15333;50.010;20.020;2024-02-04T08:54:16;98744.94;;;6.93;84.08
28008;BME280;15333;50.010;20.020;2024-02-04T08:57:18;98745.72;;;6.95;83.92
28008;BME280;15333;50.010;20.020;2024-02-04T09:00:19;98749.88;;;6.99;83.87
28008;BME280;15333;50.010;20.020;2024-02-04T09:03:20;98742.66;;;7.01;82.86
28008;BME280;15333;50.010;20.020;2024-02-04T09:06:21;98748.94;;;7.00;82.89
28008;BME280;15333;50.010;20.020;2024-02-04T09:09:22;98754.06;;;6.89;82.66
28008;BME280;15333;50.010;20.020;2024-02-04T09:12:23;98748.75;;;6.89;82.27
28008;BME280;15333;50.010;20.020;2024-02-04T09:15:24;98759.19;;;6.92;82.05
28008;BME280;15333;50.010;20.020;2024-02-04T09:18:25;98764.03;;;6.99;81.78
28008;BME280;15333;50.010;20.020;2024-02-04T09:21:26;98763.94;;;7.01;81.96
28008;BME280;15333;50.010;20.020;2024-02-04T09:24:27;98771.72;;;7.18;82.66
28008;BME280;15333;50.010;20.020;2024-02-04T09:27:28;98772.13;;;7.12;82.65
28008;BME280;15333;50.010;20.020;2024-02-04T09:30:29;98777.06;;;7.18;82.89
28008;BME280;15333;50.010;20.020;2024-02-04T09:33:30;98774.84;;;7.11;82.45
28008;BME280;15333;50.010;20.020;2024-02-04T09:36:30;98782.09;;;7.08;82.80
28008;BME280;15333;50.010;20.020;2024-02-04T09:39:32;98784.84;;;7.21;82.43
28008;BME280;15333;50.010;20.020;2024-02-04T09:42:33;98792.06;;;7.33;83.02
28008;BME280;15333;50.010;20.020;2024-02-04T09:45:34;98791.13;;;7.20;83.18
28008;BME280;15333;50.010;20.020;2024-02-04T09:48:36;98786.66;;;7.21;83.02
28008;BME280;15333;50.010;20.020;2024-02-04T09:51:40;98774.03;;;7.38;82.92
28008;BME280;15333;50.010;20.020;2024-02-04T09:54:45;98774.72;;;7.69;83.35
28008;BME280;15333;50.010;20.020;2024-02-04T09:57:48;98766.53;;;7.72;82.77
28008;BME280;15333;50.010;20.020;2024-02-04T10:00:50;98768.66;;;7.67;82.72
28008;BME280;15333;50.010;20.020;2024-02-04T10:03:51;98753.03;;;7.61;81.64
28008;BME280;15333;50.010;20.020;2024-02-04T10:06:52;98746.78;;;7.47;81.76
28008;BME280;15333;50.010;20.020;2024-02-04T10:09:53;98750.25;;;7.21;81.48
28008;BME280;15333;50.010;20.020;2024-02-04T10:12:54;98733.13;;;7.11;81.08
28008;BME280;15333;50.010;20.020;2024-02-04T10:15:55;98741.50;;;7.19;81.32
28008;BME280;15333;50.010;20.020;2024-02-04T10:18:56;98744.44;;;7.43;80.91
28008;BME280;15333;50.010;20.020;2024-02-04T10:22:03;98735.38;;;7.60;81.05
28008;BME280;15333;50.010;20.020;2024-02-04T10:25:10;98733.31;;;7.36;81.15
28008;BME280;15333;50.010;20.020;2024-02-04T10:28:15;98740.50;;;7.63;81.09
28008;BME280;15333;50.010;20.020;2024-02-04T10:31:16;98735.88;;;7.79;81.27
28008;BME280;15333;50.010;20.020;2024-02-04T10:34:17;98713.09;;;7.61;81.98
28008;BME280;15333;50.010;20.020;2024-02-04T10:37:18;98715.84;;;7.73;82.43
28008;BME280;15333;50.010;20.020;2024-02-04T10:40:19;98687.81;;;8.07;81.63
28008;BME280;15333;50.010;20.020;2024-02-04T10:43:21;98703.03;;;8.05;82.33
28008;BME280;15333;50.010;20.020;2024-02-04T10:46:23;98687.63;;;8.23;82.44
28008;BME280;15333;50.010;20.020;2024-02-04T10:49:26;98677.88;;;8.36;83.62
28008;BME280;15333;50.010;20.020;2024-02-04T10:52:27;98675.41;;;8.46;83.54
28008;BME280;15333;50.010;20.020;2024-02-04T10:55:30;98675.50;;;8.32;83.19
28008;BME280;15333;50.010;20.020;2024-02-04T10:58:33;98676.09;;;8.10;83.00
28008;BME280;15333;50.010;20.020;2024-02-04T11:01:35;98676.53;;;8.16;83.64
28008;BME280;15333;50.010;20.020;2024-02-04T11:04:38;98665.03;;;8.29;85.30
28008;BME280;15333;50.010;20.020;2024-02-04T11:07:40;98658.19;;;8.24;98.02
28008;BME280;15333;50.010;20.020;2024-02-04T11:10:41;98651.63;;;8.43;100.00
28008;BME280;15333;50.010;20.020;2024-02-04T11:13:44;98638.63;;;8.51;100.00
28008;BME280;15333;50.010;20.020;2024-02-04T11:26:13;98633.22;;;8.25;100.00
28008;BME280;15333;50.010;20.020;2024-02-04T11:29:17;98618.88;;;8.41;100.00
28008;BME280;15333;50.010;20.020;2024-02-04T11:32:18;98608.09;;;8.55;100.00
28008;BME280;15333;50.010;20.020;2024-02-04T11:35:20;98607.53;;;8.75;100.00
28008;BME280;15333;50.010;20.020;2024-02-04T11:38:21;98601.28;;;8.63;100.00
28008;BME280;15333;50.010;20.020;2024-02-04T11:41:23;98598.94;;;8.59;100.00
28008;BME280;15333;50.010;20.020;2024-02-04T11:44:26;98597.00;;;8.61;100.00
28008;BME280;15333;50.010;20.020;2024-02-04T11:47:27;98599.53;;;8.75;100.00
28008;BME280;15333;50.010;20.020;2024-02-04T11:50:29;98598.06;;;8.71;100.00
28008;BME280;15333;50.010;20.020;2024-02-04T11:53:31;98596.34;;;8.70;100.00
28008;BME280;15333;50.010;20.020;2024-02-04T11:56:33;98580.53;;;8.92;100.00
28008;BME280;15333;50.010;20.020;2024-02-04T11:59:36;98588.44;;;8.69;100.00
28008;BME280;15333;50.010;20.020;2024-02-04T12:02:37;98576.50;;;8.74;100.00
28008;BME280;15333;50.010;20.020;2024-02-04T12:05:39;98557.28;;;8.69;100.00
28008;BME280;15333;50.010;20.020;2024-02-04T12:08:39;98544.19;;;8.53;100.00
28008;BME280;15333;50.010;20.020;2024-02-04T12:11:41;98526.19;;;8.44;100.00
28008;BME280;15333;50.010;20.020;2024-02-04T12:14:42;98532.97;;;8.61;100.00
28008;BME280;15333;50.010;20.020;2024-02-04T12:17:43;98526.28;;;8.55;100.00
28008;BME280;15333;50.010;20.020;2024-02-04T12:20:46;98509.78;;;8.38;100.00
28008;BME280;15333;50.010;20.020;2024-02-04T12:23:48;98520.66;;;8.35;100.00
28008;BME280;15333;50.010;20.020;2024-02-04T12:26:49;98523.00;;;8.14;100.00
28008;BME280;15333;50.010;20.020;2024-02-04T12:29:53;98519.38;;;8.02;100.00
28008;BME280;15333;50.010;20.020;2024-02-04T12:33:01;98511.78;;;7.96;100.00
28008;BME280;15333;50.010;20.020;2024-02-04T12:36:03;98498.91;;;7.90;93.39
28008;BME280;15333;50.010;20.020;2024-02-04T12:39:04;98507.44;;;7.95;85.42
28008;BME280;15333;50.010;20.020;2024-02-04T12:42:05;98489.94;;;7.66;75.22
28008;BME280;15333;50.010;20.020;2024-02-04T12:45:06;98480.09;;;7.54;72.15
28008;BME280;15333;50.010;20.020;2024-02-04T12:48:09;98483.09;;;7.62;71.83
28008;BME280;15333;50.010;20.020;2024-02-04T12:51:10;98480.53;;;7.60;71.73
28008;BME280;15333;50.010;20.020;2024-02-04T12:54:12;98480.53;;;7.60;71.19
28008;BME280;15333;50.010;20.020;2024-02-04T12:57:23;98477.34;;;7.55;71.23
28008;BME280;15333;50.010;20.020;2024-02-04T13:00:25;98479.16;;;7.55;70.23
28008;BME280;15333;50.010;20.020;2024-02-04T13:03:25;98476.38;;;7.43;70.34
28008;BME280;15333;50.010;20.020;2024-02-04T13:06:27;98479.38;;;7.52;69.52
28008;BME280;15333;50.010;20.020;2024-02-04T13:09:28;98496.94;;;7.41;69.00
28008;BME280;15333;50.010;20.020;2024-02-04T13:12:29;98492.22;;;7.32;68.13
28008;BME280;15333;50.010;20.020;2024-02-04T13:15:31;98489.44;;;7.21;66.28
28008;BME280;15333;50.010;20.020;2024-02-04T13:18:32;98480.69;;;7.19;65.13
28008;BME280;15333;50.010;20.020;2024-02-04T13:21:33;98475.03;;;7.11;64.19
28008;BME280;15333;50.010;20.020;2024-02-04T13:24:34;98481.09;;;7.13;63.99
28008;BME280;15333;50.010;20.020;2024-02-04T13:27:35;98463.44;;;7.12;63.10
28008;BME280;15333;50.010;20.020;2024-02-04T13:30:36;98454.91;;;7.07;62.38
28008;BME280;15333;50.010;20.020;2024-02-04T13:33:40;98445.75;;;7.11;61.54
28008;BME280;15333;50.010;20.020;2024-02-04T13:36:43;98438.34;;;7.16;61.62
28008;BME280;15333;50.010;20.020;2024-02-04T13:39:43;98449.41;;;7.10;60.88
28008;BME280;15333;50.010;20.020;2024-02-04T13:42:46;98447.69;;;7.09;60.71
28008;BME280;15333;50.010;20.020;2024-02-04T13:45:47;98441.72;;;7.18;61.04
28008;BME280;15333;50.010;20.020;2024-02-04T13:48:48;98446.19;;;7.18;60.17
28008;BME280;15333;50.010;20.020;2024-02-04T13:51:49;98441.34;;;7.24;60.63
28008;BME280;15333;50.010;20.020;2024-02-04T13:54:50;98448.34;;;7.25;60.98
28008;BME280;15333;50.010;20.020;2024-02-04T13:57:51;98451.97;;;7.24;60.62
28008;BME280;15333;50.010;20.020;2024-02-04T14:00:52;98466.00;;;7.26;60.30
28008;BME280;15333;50.010;20.020;2024-02-04T14:03:52;98468.13;;;7.21;60.49
28008;BME280;15333;50.010;20.020;2024-02-04T14:06:53;98472.94;;;7.16;60.75
28008;BME280;15333;50.010;20.020;2024-02-04T14:09:54;98473.03;;;7.15;60.77
28008;BME280;15333;50.010;20.020;2024-02-04T14:12:55;98486.44;;;7.13;60.50
28008;BME280;15333;50.010;20.020;2024-02-04T14:15:56;98473.34;;;7.10;60.83
28008;BME280;15333;50.010;20.020;2024-02-04T14:18:57;98455.75;;;7.07;60.37
28008;BME280;15333;50.010;20.020;2024-02-04T14:21:57;98454.91;;;7.07;60.95
28008;BME280;15333;50.010;20.020;2024-02-04T14:24:58;98459.28;;;7.08;63.87
28008;BME280;15333;50.010;20.020;2024-02-04T14:28:00;98444.44;;;7.04;65.64
28008;BME280;15333;50.010;20.020;2024-02-04T14:31:01;98426.25;;;6.98;67.10
28008;BME280;15333;50.010;20.020;2024-02-04T14:34:02;98411.34;;;6.95;67.65
28008;BME280;15333;50.010;20.020;2024-02-04T14:37:04;98404.00;;;6.99;67.53
28008;BME280;15333;50.010;20.020;2024-02-04T14:40:06;98393.59;;;6.96;67.71
28008;BME280;15333;50.010;20.020;2024-02-04T14:43:07;98401.56;;;6.96;66.79
28008;BME280;15333;50.010;20.020;2024-02-04T14:46:08;98412.41;;;6.93;67.31
28008;BME280;15333;50.010;20.020;2024-02-04T14:49:10;98401.00;;;6.91;66.49
28008;BME280;15333;50.010;20.020;2024-02-04T14:52:11;98376.34;;;6.89;66.70
28008;BME280;15333;50.010;20.020;2024-02-04T14:55:12;98386.00;;;6.90;66.71
28008;BME280;15333;50.010;20.020;2024-02-04T14:58:13;98386.13;;;6.88;66.79
28008;BME280;15333;50.010;20.020;2024-02-04T15:01:13;98393.44;;;6.85;67.06
28008;BME280;15333;50.010;20.020;2024-02-04T15:04:14;98405.03;;;6.84;67.21
28008;BME280;15333;50.010;20.020;2024-02-04T15:07:15;98404.50;;;6.79;67.33
28008;BME280;15333;50.010;20.020;2024-02-04T15:10:16;98394.81;;;6.78;68.11
28008;BME280;15333;50.010;20.020;2024-02-04T15:13:18;98391.72;;;6.71;68.02
28008;BME280;15333;50.010;20.020;2024-02-04T15:16:19;98388.59;;;6.64;67.99
28008;BME280;15333;50.010;20.020;2024-02-04T15:19:20;98373.06;;;6.58;67.71
28008;BME280;15333;50.010;20.020;2024-02-04T15:22:21;98368.16;;;6.52;67.44
28008;BME280;15333;50.010;20.020;2024-02-04T15:25:22;98354.09;;;6.50;67.05
28008;BME280;15333;50.010;20.020;2024-02-04T15:28:24;98355.59;;;6.54;66.70
28008;BME280;15333;50.010;20.020;2024-02-04T15:31:25;98353.69;;;6.56;66.58
28008;BME280;15333;50.010;20.020;2024-02-04T15:34:28;98346.47;;;6.58;66.61
28008;BME280;15333;50.010;20.020;2024-02-04T15:37:32;98346.47;;;6.58;66.68
28008;BME280;15333;50.010;20.020;2024-02-04T15:40:35;98336.69;;;6.59;66.63
28008;BME280;15333;50.010;20.020;2024-02-04T15:43:36;98347.00;;;6.63;66.15
28008;BME280;15333;50.010;20.020;2024-02-04T15:46:37;98341.38;;;6.68;65.76
28008;BME280;15333;50.010;20.020;2024-02-04T15:49:40;98353.53;;;6.72;66.03
28008;BME280;15333;50.010;20.020;2024-02-04T15:52:41;98338.53;;;6.71;66.04
28008;BME280;15333;50.010;20.020;2024-02-04T15:55:43;98339.56;;;6.68;65.50
28008;BME280;15333;50.010;20.020;2024-02-04T15:58:44;98346.06;;;6.64;65.29
28008;BME280;15333;50.010;20.020;2024-02-04T16:01:45;98332.84;;;6.63;64.53
28008;BME280;15333;50.010;20.020;2024-02-04T16:04:46;98336.47;;;6.62;64.46
28008;BME280;15333;50.010;20.020;2024-02-04T16:07:48;98330.00;;;6.66;65.04
28008;BME280;15333;50.010;20.020;2024-02-04T16:10:53;98322.66;;;6.69;64.64
28008;BME280;15333;50.010;20.020;2024-02-04T16:13:55;98320.75;;;6.72;65.53